This is the latest recevied weather packets stored in our database for station/object KK6LZB. If no packets are shown the sender has not sent any weather packets the latest 10 day(s).
| Time | Temp. | Humidity | Pressure | Rain* | Wind** | Luminosity | Snow |
|---|---|---|---|---|---|---|---|
| 1777406789 | 22.22° C | 51% | 1018.7 hPa | 0 mm | - | 716 W/m² | - |
| 1777406484 | 21.67° C | 53% | 1018.8 hPa | 0 mm | - | 723 W/m² | - |
| 1777406180 | 21.67° C | 55% | 1018.7 hPa | 0 mm | - | 718 W/m² | - |
| 1777405875 | 20.56° C | 58% | 1019 hPa | 0 mm | - | 674 W/m² | - |
| 1777405571 | 20.56° C | 57% | 1019 hPa | 0 mm | - | 729 W/m² | - |
| 1777405268 | 21.67° C | 56% | 1019 hPa | 0 mm | - | 721 W/m² | - |
| 1777404969 | 21.67° C | 54% | 1019.1 hPa | 0 mm | - | 709 W/m² | - |
| 1777404668 | 21.67° C | 55% | 1019.1 hPa | 0 mm | - | 715 W/m² | - |
| 1777404365 | 21.67° C | 57% | 1019.4 hPa | 0 mm | - | 713 W/m² | - |
| 1777404061 | 21.11° C | 58% | 1019.2 hPa | 0 mm | - | 712 W/m² | - |
| 1777403757 | 21.11° C | 57% | 1019.2 hPa | 0 mm | - | 710 W/m² | - |
| 1777403456 | 21.11° C | 58% | 1019.2 hPa | 0 mm | - | 707 W/m² | - |
| 1777403150 | 22.22° C | 55% | 1019.3 hPa | 0 mm | - | 692 W/m² | - |
| 1777402846 | 21.67° C | 57% | 1019.2 hPa | 0 mm | - | 697 W/m² | - |
| 1777402543 | 22.22° C | 56% | 1019.2 hPa | 0 mm | - | 694 W/m² | - |
| 1777402240 | 22.22° C | 54% | 1019.2 hPa | 0 mm | - | 690 W/m² | - |
| 1777401935 | 22.22° C | 54% | 1019.2 hPa | 0 mm | - | 685 W/m² | - |
| 1777401633 | 22.22° C | 55% | 1019.4 hPa | 0 mm | - | 680 W/m² | - |
| 1777401331 | 21.67° C | 56% | 1019.4 hPa | 0 mm | - | 673 W/m² | - |
| 1777401027 | 21.67° C | 57% | 1019.4 hPa | 0 mm | - | 668 W/m² | - |
| 1777400722 | 21.67° C | 59% | 1019.2 hPa | 0 mm | - | 660 W/m² | - |
| 1777400420 | 21.11° C | 62% | 1019.3 hPa | 0 mm | - | 653 W/m² | - |
| 1777400120 | 21.11° C | 61% | 1019.4 hPa | 0 mm | - | 646 W/m² | - |
| 1777399817 | 21.67° C | 60% | 1019.5 hPa | 0 mm | - | 638 W/m² | - |
| 1777399514 | 20.56° C | 62% | 1019.5 hPa | 0 mm | - | 627 W/m² | - |
* Rain latest hour (hover to see other rain measurements)
** Current wind speed in m/s (hover to see current wind gust speed)